sim
Sign-in with your pilot id or email,
or register
Callsign
Passwort

Schedule Details

Flight Number: OEO4725
Departure: Stockholm Arlanda Airport (ESSA) at 13:30
Arrival: Munich Airport (EDDM) at 15:50

Weather Information
Getting current METAR information for ESSA 210150Z 23007KT CAVOK 10/10 Q1014 NOSIG
Getting current METAR information for EDDM 210150Z VRB01KT CAVOK 08/08 Q1016 NOSIG

Schedule Frequency

Route Map